Time;durP1;ratioP1;P1;durP2;ratioP2;P2;SDS_P1;SDS_P2;PMS_P1;PMS_P2;Temp;Humidity;BMP_temperature;BMP_pressure;BME280_temperature;BME280_humidity;BME280_pressure;Samples;Min_cycle;Max_cycle;Signal;HPM_P1;HPM_P2
2023/12/24 00:01:48;;;;;;;2.28;1.20;;;;;;;10.52;66.58;100382.97;4165394;28;20511;-63
2023/12/24 00:03:51;;;;;;;1.83;1.55;;;;;;;10.53;65.87;100382.09;4165444;28;20086;-62
2023/12/24 00:05:54;;;;;;;4.22;0.93;;;;;;;10.46;66.92;100366.41;4159154;28;20092;-62
2023/12/24 00:08:00;;;;;;;3.47;1.10;;;;;;;10.51;66.64;100373.41;4151504;28;20400;-63
2023/12/24 00:10:03;;;;;;;0.82;0.70;;;;;;;10.52;66.63;100375.16;4158216;28;20045;-63
2023/12/24 00:12:06;;;;;;;3.45;0.90;;;;;;;10.49;66.32;100376.00;4148868;28;20037;-62
2023/12/24 00:14:08;;;;;;;2.15;1.23;;;;;;;10.55;66.52;100372.59;4162117;28;20042;-62
2023/12/24 00:16:11;;;;;;;2.53;1.10;;;;;;;10.54;65.68;100373.44;4156912;28;20046;-63
2023/12/24 00:18:14;;;;;;;2.90;1.48;;;;;;;10.52;65.60;100380.38;4164731;28;20128;-63
2023/12/24 00:20:17;;;;;;;2.28;0.90;;;;;;;10.51;66.44;100374.28;4160057;28;20096;-63
2023/12/24 00:22:19;;;;;;;2.20;0.95;;;;;;;10.55;66.24;100375.19;4166219;28;20049;-62
2023/12/24 00:24:22;;;;;;;1.75;0.90;;;;;;;10.56;65.02;100379.56;4163619;28;20068;-63
2023/12/24 00:26:25;;;;;;;1.02;0.73;;;;;;;10.54;65.58;100368.25;4153487;28;20046;-63
2023/12/24 00:28:28;;;;;;;1.25;0.60;;;;;;;10.56;65.56;100379.56;4149794;28;20041;-62
2023/12/24 00:30:32;;;;;;;1.98;1.02;;;;;;;10.48;65.19;100374.22;4149841;28;20046;-62
2023/12/24 00:32:35;;;;;;;5.47;0.93;;;;;;;10.53;66.17;100376.88;4157288;28;20044;-62
2023/12/24 00:34:40;;;;;;;2.20;1.05;;;;;;;10.64;66.16;100375.31;4156712;28;20045;-61
2023/12/24 00:36:42;;;;;;;3.15;1.00;;;;;;;10.67;64.77;100369.28;4164786;28;20042;-62
2023/12/24 00:38:45;;;;;;;2.35;0.80;;;;;;;10.65;65.21;100361.47;4163922;28;20045;-62
2023/12/24 00:40:47;;;;;;;1.55;0.90;;;;;;;10.56;65.61;100363.97;4158704;28;20034;-62
2023/12/24 00:42:51;;;;;;;0.95;0.70;;;;;;;10.50;66.10;100371.66;4163155;28;20037;-62
2023/12/24 00:44:54;;;;;;;3.10;0.73;;;;;;;10.53;65.14;100369.09;4164500;28;20073;-62
2023/12/24 00:46:57;;;;;;;1.65;0.75;;;;;;;10.61;65.79;100364.88;4166284;28;20041;-62
2023/12/24 00:49:00;;;;;;;1.75;1.10;;;;;;;10.61;65.19;100364.88;4157075;28;20063;-62
2023/12/24 00:51:05;;;;;;;1.67;0.90;;;;;;;10.64;65.58;100359.72;4156647;28;20045;-62
2023/12/24 00:53:08;;;;;;;1.27;0.90;;;;;;;10.63;64.91;100351.03;4155666;28;20100;-62
2023/12/24 00:55:12;;;;;;;4.32;1.00;;;;;;;10.67;65.00;100351.94;4147674;28;20041;-62
2023/12/24 00:57:15;;;;;;;1.52;0.90;;;;;;;10.68;65.68;100350.22;4154972;28;20040;-62
2023/12/24 00:59:17;;;;;;;1.13;0.70;;;;;;;10.70;64.86;100331.19;4156132;28;20579;-62
2023/12/24 01:01:20;;;;;;;3.65;1.08;;;;;;;10.70;65.04;100349.38;4162316;28;20092;-63
2023/12/24 01:03:22;;;;;;;2.67;1.17;;;;;;;10.69;65.73;100341.56;4148455;28;20500;-62
2023/12/24 01:05:25;;;;;;;4.70;1.02;;;;;;;10.60;64.95;100348.41;4149100;28;20125;-62
2023/12/24 01:07:29;;;;;;;1.45;0.85;;;;;;;10.50;66.19;100333.56;4148248;28;20073;-61
2023/12/24 01:09:32;;;;;;;2.67;1.02;;;;;;;10.52;66.09;100344.84;4157807;28;20041;-61
2023/12/24 01:11:35;;;;;;;1.65;1.00;;;;;;;10.56;65.83;100335.38;4172679;28;20044;-61
2023/12/24 01:13:38;;;;;;;4.65;1.30;;;;;;;10.52;65.71;100333.56;4164557;28;20487;-61
2023/12/24 01:15:41;;;;;;;2.20;1.08;;;;;;;10.55;66.12;100329.28;4148150;28;20065;-62
2023/12/24 01:17:44;;;;;;;1.75;1.13;;;;;;;10.56;66.30;100324.97;4165112;28;20037;-62
2023/12/24 01:19:47;;;;;;;3.17;1.40;;;;;;;10.60;66.42;100326.72;4158946;28;20034;-62
2023/12/24 01:21:50;;;;;;;3.95;1.30;;;;;;;10.61;66.43;100334.53;4148129;28;20038;-62
2023/12/24 01:23:54;;;;;;;5.20;1.50;;;;;;;10.58;65.83;100331.03;4150818;28;20045;-63
2023/12/24 01:25:57;;;;;;;2.63;1.13;;;;;;;10.54;66.26;100331.84;4165158;28;20053;-62
2023/12/24 01:28:00;;;;;;;4.10;1.00;;;;;;;10.44;66.05;100334.34;4148292;28;20700;-62
2023/12/24 01:30:04;;;;;;;2.95;1.40;;;;;;;10.45;66.32;100330.00;4148119;28;20423;-63
2023/12/24 01:32:07;;;;;;;2.58;1.27;;;;;;;10.53;66.68;100338.78;4148066;28;20049;-63
2023/12/24 01:34:10;;;;;;;4.88;1.15;;;;;;;10.48;65.98;100336.13;4152344;28;20045;-63
2023/12/24 01:36:13;;;;;;;5.65;1.52;;;;;;;10.49;66.35;100350.00;4155548;28;20076;-63
2023/12/24 01:38:16;;;;;;;2.00;1.17;;;;;;;10.47;66.47;100341.31;4147826;28;20069;-62
2023/12/24 01:40:21;;;;;;;2.42;1.02;;;;;;;10.51;65.75;100350.00;4161133;28;20042;-62
2023/12/24 01:42:24;;;;;;;2.55;1.00;;;;;;;10.51;65.82;100357.81;4153149;28;20041;-62
2023/12/24 01:44:27;;;;;;;2.42;1.10;;;;;;;10.47;65.66;100349.13;4154296;28;20037;-63
2023/12/24 01:46:30;;;;;;;1.80;1.00;;;;;;;10.48;66.21;100343.94;4156717;28;20072;-63
2023/12/24 01:48:33;;;;;;;4.30;1.20;;;;;;;10.51;65.82;100363.00;4164037;28;20068;-62
2023/12/24 01:50:37;;;;;;;2.47;0.95;;;;;;;10.52;65.42;100360.44;4163921;28;20099;-63
2023/12/24 01:52:39;;;;;;;1.70;0.98;;;;;;;10.53;65.72;100364.78;4163976;28;20076;-63
2023/12/24 01:54:42;;;;;;;6.38;1.42;;;;;;;10.50;65.81;100363.84;4163735;28;20116;-62
2023/12/24 01:56:47;;;;;;;2.88;0.80;;;;;;;10.52;65.28;100364.78;4158062;28;20541;-62
2023/12/24 01:58:49;;;;;;;;;;;;;;;10.41;66.13;100368.09;4147935;28;20069;-62
2023/12/24 02:00:53;;;;;;;2.15;0.93;;;;;;;10.37;65.57;100363.72;4163715;28;19921;-62
2023/12/24 02:02:58;;;;;;;3.95;1.40;;;;;;;10.44;66.16;100368.13;4147934;28;20048;-62
2023/12/24 02:05:02;;;;;;;1.27;0.75;;;;;;;10.45;66.17;100364.69;4157403;28;20044;-63
2023/12/24 02:07:05;;;;;;;0.88;0.73;;;;;;;10.41;65.90;100362.00;4155723;28;20045;-63
2023/12/24 02:09:08;;;;;;;3.22;0.88;;;;;;;10.42;66.31;100358.56;4148612;28;20046;-63
2023/12/24 02:11:10;;;;;;;2.60;0.85;;;;;;;10.37;66.73;100355.06;4156554;28;20045;-63
2023/12/24 02:13:15;;;;;;;0.70;0.70;;;;;;;10.34;66.84;100360.19;4147259;28;20069;-61
2023/12/24 02:15:18;;;;;;;0.95;0.60;;;;;;;10.41;66.62;100362.91;4160429;28;20033;-63
2023/12/24 02:17:24;;;;;;;0.98;0.68;;;;;;;10.41;66.32;100354.22;4152906;28;20046;-62
2023/12/24 02:19:27;;;;;;;1.80;0.85;;;;;;;10.48;66.12;100363.84;4147206;28;20034;-62
2023/12/24 02:21:31;;;;;;;1.60;0.52;;;;;;;10.43;66.85;100358.59;4147092;28;20048;-64
2023/12/24 02:23:34;;;;;;;1.00;0.70;;;;;;;10.48;66.48;100375.13;4147088;28;20472;-62
2023/12/24 02:25:37;;;;;;;1.58;0.50;;;;;;;10.40;67.00;100374.13;4161150;28;20523;-63
2023/12/24 02:27:48;;;;;;;1.38;0.70;;;;;;;10.42;66.62;100368.97;4150025;28;20046;-62
2023/12/24 02:29:57;;;;;;;0.40;0.40;;;;;;;10.41;67.37;100375.91;4147007;28;20034;-63
2023/12/24 02:32:06;;;;;;;4.90;0.70;;;;;;;10.46;66.47;100379.41;4147021;28;20141;-63
2023/12/24 02:34:13;;;;;;;1.00;0.50;;;;;;;10.42;66.54;100380.22;4149543;28;20033;-62
2023/12/24 02:36:18;;;;;;;1.13;0.57;;;;;;;10.29;67.43;100389.56;4139921;28;20042;-62
2023/12/24 02:38:22;;;;;;;1.02;0.40;;;;;;;10.24;67.46;100383.41;4164469;28;20503;-64
2023/12/24 02:40:25;;;;;;;1.80;0.50;;;;;;;10.16;67.95;100376.34;4161316;28;20029;-64
2023/12/24 02:42:28;;;;;;;0.88;0.52;;;;;;;10.13;67.91;100383.28;4158203;28;20131;-63
2023/12/24 02:44:31;;;;;;;1.10;0.70;;;;;;;10.14;68.16;100374.59;4161595;28;20487;-63
2023/12/24 02:46:34;;;;;;;1.80;0.50;;;;;;;10.19;68.65;100382.50;4158638;28;20510;-63
2023/12/24 02:48:37;;;;;;;2.72;0.77;;;;;;;10.21;67.91;100374.72;4146764;28;20045;-64
2023/12/24 02:50:40;;;;;;;0.95;0.50;;;;;;;10.23;68.69;100370.41;4146697;28;20042;-63
2023/12/24 02:52:44;;;;;;;0.60;0.60;;;;;;;10.22;68.12;100368.66;4146633;28;20048;-63
2023/12/24 02:54:47;;;;;;;0.73;0.55;;;;;;;10.23;67.85;100365.22;4153846;28;20064;-62
2023/12/24 02:56:50;;;;;;;2.58;0.70;;;;;;;10.22;67.76;100356.56;4161884;28;20092;-63
2023/12/24 02:58:53;;;;;;;1.10;0.57;;;;;;;10.23;68.04;100366.06;4154685;28;20033;-62
2023/12/24 03:00:56;;;;;;;1.75;0.98;;;;;;;10.21;68.45;100367.78;4162948;28;20045;-62
2023/12/24 03:02:59;;;;;;;0.80;0.80;;;;;;;10.25;67.64;100366.09;4146612;28;20112;-62
2023/12/24 03:05:01;;;;;;;0.60;0.60;;;;;;;10.24;68.13;100364.38;4161234;28;20125;-62
2023/12/24 03:07:05;;;;;;;1.27;0.80;;;;;;;10.20;67.71;100363.44;4155972;28;20072;-63
2023/12/24 03:09:10;;;;;;;1.35;0.80;;;;;;;10.19;67.78;100363.41;4161878;28;20092;-62
2023/12/24 03:11:14;;;;;;;1.27;0.80;;;;;;;10.16;67.90;100355.56;4163938;28;20048;-63
2023/12/24 03:13:16;;;;;;;1.08;0.77;;;;;;;10.13;68.76;100352.09;4152550;28;20136;-63
2023/12/24 03:15:20;;;;;;;1.75;0.82;;;;;;;10.17;68.04;100355.59;4157231;28;20065;-63
2023/12/24 03:17:23;;;;;;;2.15;0.80;;;;;;;10.21;68.11;100360.00;4146386;28;20038;-62
2023/12/24 03:19:25;;;;;;;1.25;0.82;;;;;;;10.14;68.45;100351.22;4146563;28;20042;-61
2023/12/24 03:21:28;;;;;;;1.65;0.95;;;;;;;10.20;67.62;100352.19;4146446;28;20124;-63
2023/12/24 03:23:31;;;;;;;1.15;0.95;;;;;;;10.15;67.79;100349.53;4146347;28;20487;-62
2023/12/24 03:25:34;;;;;;;1.60;0.95;;;;;;;10.11;68.28;100347.72;4158799;28;20043;-61
2023/12/24 03:27:38;;;;;;;1.58;1.08;;;;;;;10.17;67.16;100331.34;4162573;28;20033;-62
2023/12/24 03:29:40;;;;;;;2.22;1.00;;;;;;;10.19;67.10;100340.03;4163738;28;20402;-63
2023/12/24 03:31:43;;;;;;;1.42;0.80;;;;;;;10.26;66.98;100344.47;4162567;28;20042;-62
2023/12/24 03:33:45;;;;;;;3.60;1.00;;;;;;;10.24;66.98;100346.19;4146155;28;20500;-63
2023/12/24 03:35:48;;;;;;;1.10;1.00;;;;;;;10.21;67.04;100351.34;4161418;28;20029;-62
2023/12/24 03:37:51;;;;;;;1.58;1.10;;;;;;;10.14;66.83;100332.19;4149232;28;20488;-62
2023/12/24 03:39:54;;;;;;;1.73;1.00;;;;;;;10.15;66.67;100336.53;4151843;28;20044;-63
2023/12/24 03:41:57;;;;;;;1.33;1.00;;;;;;;10.24;66.84;100328.00;4163582;28;20041;-63
2023/12/24 03:44:01;;;;;;;2.85;1.25;;;;;;;10.26;66.22;100313.28;4146453;28;20128;-62
2023/12/24 03:46:05;;;;;;;2.80;1.30;;;;;;;10.32;66.54;100310.75;4162036;28;20152;-63
2023/12/24 03:48:08;;;;;;;3.45;1.35;;;;;;;10.33;65.97;100317.72;4145972;28;20046;-63
2023/12/24 03:50:12;;;;;;;3.08;1.08;;;;;;;10.30;66.58;100312.47;4146197;28;20531;-64
2023/12/24 03:52:14;;;;;;;3.60;1.20;;;;;;;10.29;66.44;100306.41;4146243;28;20046;-64
2023/12/24 03:54:21;;;;;;;1.50;1.00;;;;;;;10.23;66.92;100300.25;4164290;28;20041;-63
2023/12/24 03:56:24;;;;;;;3.13;1.10;;;;;;;10.28;66.14;100294.28;4163848;28;20041;-63
2023/12/24 03:58:27;;;;;;;3.85;0.90;;;;;;;10.21;66.54;100291.59;4152892;28;20369;-62
2023/12/24 04:00:30;;;;;;;3.17;1.02;;;;;;;10.19;66.71;100298.47;4146376;28;20566;-63
2023/12/24 04:02:33;;;;;;;2.15;1.08;;;;;;;10.27;66.69;100309.84;4147373;28;20044;-62
2023/12/24 04:04:36;;;;;;;3.55;1.30;;;;;;;10.35;65.84;100302.16;4149929;28;20049;-62
2023/12/24 04:06:39;;;;;;;1.63;1.10;;;;;;;10.34;65.78;100303.00;4162120;28;20120;-63
2023/12/24 04:08:42;;;;;;;1.05;0.88;;;;;;;10.29;65.87;100297.72;4148978;28;20049;-61
2023/12/24 04:10:45;;;;;;;1.67;1.10;;;;;;;10.31;65.84;100285.66;4158980;28;20037;-63
2023/12/24 04:12:49;;;;;;;0.90;0.80;;;;;;;10.33;65.83;100281.34;4156135;28;20132;-63
2023/12/24 04:14:53;;;;;;;1.08;0.77;;;;;;;10.31;65.88;100264.88;4151025;28;20041;-63
2023/12/24 04:16:57;;;;;;;2.33;0.80;;;;;;;10.27;66.42;100256.13;4163428;28;20125;-63
2023/12/24 04:18:59;;;;;;;2.30;1.10;;;;;;;10.22;66.16;100249.13;4146519;28;20046;-63
2023/12/24 04:21:03;;;;;;;1.55;0.77;;;;;;;10.34;66.08;100254.53;4146035;28;20041;-63
2023/12/24 04:23:06;;;;;;;1.70;0.85;;;;;;;10.29;66.60;100253.56;4145959;28;20045;-62
2023/12/24 04:25:08;;;;;;;1.95;0.88;;;;;;;10.33;66.08;100263.16;4153068;28;20042;-62
2023/12/24 04:27:11;;;;;;;1.98;0.75;;;;;;;10.34;66.52;100275.31;4157077;28;20041;-62
2023/12/24 04:29:14;;;;;;;1.98;0.70;;;;;;;10.26;66.38;100284.69;4148813;28;20053;-61
2023/12/24 04:31:18;;;;;;;2.35;0.90;;;;;;;10.19;66.56;100282.88;4148939;28;20117;-62
2023/12/24 04:33:22;;;;;;;1.67;0.60;;;;;;;10.28;66.64;100280.41;4150163;28;20038;-62
2023/12/24 04:35:26;;;;;;;4.40;0.90;;;;;;;10.28;66.99;100280.41;4157717;28;20038;-63
2023/12/24 04:37:29;;;;;;;2.65;0.75;;;;;;;10.26;66.82;100287.31;4156867;28;20061;-62
2023/12/24 04:39:32;;;;;;;1.70;0.80;;;;;;;10.22;67.04;100273.41;4149402;28;20498;-62
2023/12/24 04:41:34;;;;;;;0.85;0.60;;;;;;;10.20;67.07;100261.25;4173133;28;20038;-64
2023/12/24 04:43:39;;;;;;;0.50;0.50;;;;;;;10.24;67.06;100260.44;4145178;28;20051;-63
2023/12/24 04:45:42;;;;;;;1.35;0.70;;;;;;;10.21;67.59;100256.06;4163568;28;20400;-64
2023/12/24 04:47:44;;;;;;;0.30;0.28;;;;;;;10.21;67.34;100250.88;4159156;28;20026;-64
2023/12/24 04:49:49;;;;;;;0.85;0.60;;;;;;;10.19;67.93;100252.59;4132326;28;20137;-64
2023/12/24 04:51:52;;;;;;;0.90;0.60;;;;;;;10.18;68.11;100242.16;4148552;28;20093;-64
2023/12/24 04:53:55;;;;;;;2.33;0.60;;;;;;;10.21;67.32;100231.84;4148528;28;20045;-64
2023/12/24 04:55:58;;;;;;;0.63;0.60;;;;;;;10.21;67.75;100230.09;4161067;28;20132;-64
2023/12/24 04:58:01;;;;;;;3.72;0.77;;;;;;;10.23;67.72;100251.75;4157017;28;20049;-64
2023/12/24 05:00:05;;;;;;;4.07;0.63;;;;;;;10.21;67.25;100250.03;4148167;28;20049;-64
2023/12/24 05:02:08;;;;;;;;;;;;;;;10.06;68.58;100235.97;4164464;28;20068;-64
2023/12/24 05:04:10;;;;;;;1.52;0.70;;;;;;;10.12;67.87;100241.25;4155608;28;20052;-65
2023/12/24 05:06:15;;;;;;;0.40;0.40;;;;;;;10.15;68.41;100230.03;4163675;28;20103;-64
2023/12/24 05:08:18;;;;;;;0.60;0.60;;;;;;;10.16;67.80;100229.16;4155681;28;20065;-65
2023/12/24 05:10:21;;;;;;;2.08;0.60;;;;;;;10.11;68.27;100226.50;4154163;28;20045;-61
2023/12/24 05:12:23;;;;;;;1.48;0.63;;;;;;;10.10;68.26;100232.56;4156314;28;20141;-63
2023/12/24 05:14:29;;;;;;;2.10;0.40;;;;;;;10.13;68.38;100237.81;4147837;28;20037;-62
2023/12/24 05:16:31;;;;;;;0.63;0.55;;;;;;;10.18;68.59;100239.56;4156012;28;20388;-63
2023/12/24 05:18:35;;;;;;;0.40;0.40;;;;;;;10.11;68.40;100242.09;4160297;28;20048;-63
2023/12/24 05:20:37;;;;;;;0.38;0.30;;;;;;;10.09;68.25;100236.03;4164500;28;20036;-64
2023/12/24 05:22:42;;;;;;;2.15;0.70;;;;;;;10.12;68.86;100240.38;4164376;28;20491;-63
2023/12/24 05:24:44;;;;;;;0.47;0.47;;;;;;;10.02;68.09;100223.81;4163233;28;20194;-63
2023/12/24 05:26:48;;;;;;;1.00;0.50;;;;;;;10.02;68.37;100239.38;4164336;28;20567;-63
2023/12/24 05:28:52;;;;;;;1.67;0.60;;;;;;;10.09;68.25;100235.13;4159179;28;20030;-63
2023/12/24 05:30:54;;;;;;;1.30;0.57;;;;;;;10.17;67.94;100227.44;4164058;28;20083;-62
2023/12/24 05:32:58;;;;;;;0.68;0.45;;;;;;;10.11;68.24;100223.91;4161022;28;20060;-62
2023/12/24 05:35:01;;;;;;;0.45;0.30;;;;;;;10.09;69.04;100225.63;4161884;28;20092;-63
2023/12/24 05:37:04;;;;;;;0.40;0.40;;;;;;;10.10;68.66;100232.56;4164889;28;20034;-62
2023/12/24 05:39:11;;;;;;;0.45;0.40;;;;;;;10.16;68.87;100225.69;4165152;28;20076;-63
2023/12/24 05:41:16;;;;;;;1.08;0.40;;;;;;;10.20;68.37;100233.53;4163964;28;20049;-63
2023/12/24 05:43:18;;;;;;;0.93;0.60;;;;;;;10.17;68.83;100224.84;4156963;28;20069;-62
2023/12/24 05:45:21;;;;;;;1.95;0.43;;;;;;;10.19;68.38;100223.13;4162647;28;20033;-63
2023/12/24 05:47:24;;;;;;;1.42;0.60;;;;;;;10.13;68.58;100226.53;4161123;28;20037;-62
2023/12/24 05:49:27;;;;;;;0.70;0.50;;;;;;;10.12;69.25;100222.19;4163071;28;20041;-63
2023/12/24 05:51:30;;;;;;;0.70;0.55;;;;;;;10.16;68.54;100215.31;4160404;28;20045;-62
2023/12/24 05:53:33;;;;;;;0.93;0.52;;;;;;;10.24;68.93;100214.53;4164968;28;20519;-62
2023/12/24 05:55:38;;;;;;;2.30;0.70;;;;;;;10.29;68.99;100223.28;4162896;28;20033;-63
2023/12/24 05:57:40;;;;;;;1.45;0.55;;;;;;;10.18;68.65;100219.66;4158805;28;20121;-62
2023/12/24 05:59:43;;;;;;;1.83;0.60;;;;;;;10.23;68.84;100223.19;4162002;28;20038;-62
2023/12/24 06:01:46;;;;;;;0.50;0.50;;;;;;;10.18;69.33;100229.16;4164723;28;20342;-63
2023/12/24 06:03:49;;;;;;;1.35;0.55;;;;;;;10.13;69.54;100222.22;4160316;28;20492;-62
2023/12/24 06:05:52;;;;;;;2.35;0.70;;;;;;;10.14;69.89;100213.56;4160290;28;20064;-62
2023/12/24 06:07:55;;;;;;;2.72;0.90;;;;;;;10.09;69.49;100212.63;4163272;28;20511;-62
2023/12/24 06:09:58;;;;;;;4.13;0.88;;;;;;;10.09;69.75;100210.03;4160632;28;20395;-62
2023/12/24 06:12:02;;;;;;;2.28;0.82;;;;;;;10.12;69.91;100210.06;4159542;28;20048;-62
2023/12/24 06:14:05;;;;;;;1.02;0.60;;;;;;;10.19;69.38;100211.03;4161363;28;20088;-62
2023/12/24 06:16:07;;;;;;;0.77;0.50;;;;;;;10.19;69.74;100197.16;4154364;28;20072;-61
2023/12/24 06:18:12;;;;;;;0.47;0.47;;;;;;;10.21;68.88;100185.06;4160230;28;20128;-62
2023/12/24 06:20:16;;;;;;;1.10;0.50;;;;;;;10.19;69.72;100173.78;4157918;28;20041;-62
2023/12/24 06:22:19;;;;;;;1.50;0.90;;;;;;;10.17;69.02;100180.69;4161651;28;20091;-62
2023/12/24 06:24:22;;;;;;;0.90;0.70;;;;;;;10.32;68.79;100152.25;4156989;28;20045;-61
2023/12/24 06:26:25;;;;;;;2.20;0.60;;;;;;;10.26;69.49;100149.59;4160922;28;21128;-61
2023/12/24 06:28:29;;;;;;;1.48;0.80;;;;;;;10.34;68.44;100147.09;4159040;28;20507;-62
2023/12/24 06:30:32;;;;;;;5.20;0.80;;;;;;;10.21;68.76;100136.56;4164375;28;20038;-62
2023/12/24 06:32:35;;;;;;;1.02;0.80;;;;;;;10.24;69.41;100135.75;4154738;28;20080;-62
2023/12/24 06:34:38;;;;;;;5.72;0.82;;;;;;;10.25;68.75;100143.56;4164294;28;20037;-62
2023/12/24 06:36:40;;;;;;;1.38;0.57;;;;;;;10.36;68.62;100154.06;4151444;28;20073;-61
2023/12/24 06:38:43;;;;;;;1.42;0.80;;;;;;;10.36;69.06;100151.47;4148687;28;20041;-62
2023/12/24 06:40:46;;;;;;;1.05;0.70;;;;;;;10.21;70.11;100148.69;4158653;28;20040;-61
2023/12/24 06:42:49;;;;;;;1.13;0.70;;;;;;;10.31;69.24;100140.16;4161222;28;20111;-62
2023/12/24 06:44:54;;;;;;;2.08;0.70;;;;;;;10.21;69.34;100136.56;4160237;28;20037;-62
2023/12/24 06:46:57;;;;;;;2.50;0.65;;;;;;;10.22;70.00;100150.41;4157344;28;20073;-62
2023/12/24 06:49:00;;;;;;;3.28;0.93;;;;;;;10.13;69.96;100144.28;4163027;28;20037;-62
2023/12/24 06:51:02;;;;;;;1.77;0.70;;;;;;;10.08;70.27;100145.94;4164342;28;20041;-61
2023/12/24 06:53:06;;;;;;;3.25;0.63;;;;;;;10.20;69.70;100152.16;4163125;28;20047;-62
2023/12/24 06:55:09;;;;;;;2.80;0.75;;;;;;;10.13;70.85;100149.50;4162332;28;20041;-62
2023/12/24 06:57:12;;;;;;;4.53;0.80;;;;;;;10.13;70.86;100140.81;4156037;28;20065;-62
2023/12/24 06:59:15;;;;;;;2.03;0.50;;;;;;;10.23;70.23;100146.97;4164159;28;20029;-62
2023/12/24 07:01:19;;;;;;;6.32;0.75;;;;;;;10.18;69.92;100146.94;4164223;28;20095;-62
2023/12/24 07:03:22;;;;;;;3.63;0.60;;;;;;;10.21;70.29;100133.97;4164169;28;20491;-62
2023/12/24 07:05:25;;;;;;;2.28;1.00;;;;;;;10.21;70.93;100143.50;4163973;28;20037;-62
2023/12/24 07:07:28;;;;;;;1.23;0.70;;;;;;;10.24;71.14;100146.13;4163019;28;20068;-62
2023/12/24 07:09:31;;;;;;;3.05;0.55;;;;;;;10.12;71.36;100131.28;4160512;28;20042;-62
2023/12/24 07:11:34;;;;;;;1.55;0.70;;;;;;;10.09;71.87;100139.91;4157198;28;20061;-62
2023/12/24 07:13:37;;;;;;;3.47;0.60;;;;;;;10.17;71.46;100149.53;4160269;28;20047;-63
2023/12/24 07:15:42;;;;;;;3.08;0.95;;;;;;;10.20;71.62;100147.81;4162595;28;20418;-62
2023/12/24 07:17:46;;;;;;;0.63;0.40;;;;;;;10.09;72.55;100142.50;4162937;28;20132;-62
2023/12/24 07:19:49;;;;;;;5.03;0.70;;;;;;;10.18;71.67;100138.25;4162528;28;20052;-62
2023/12/24 07:21:52;;;;;;;2.65;0.63;;;;;;;10.14;71.66;100139.97;4156185;28;20467;-62
2023/12/24 07:23:54;;;;;;;4.13;2.45;;;;;;;10.03;71.65;100146.75;4147713;28;20053;-62
2023/12/24 07:25:57;;;;;;;1.52;0.63;;;;;;;9.96;72.04;100156.22;4152566;28;20037;-62
2023/12/24 07:28:00;;;;;;;0.43;0.43;;;;;;;9.96;72.70;100151.03;4156318;28;20069;-62
2023/12/24 07:30:03;;;;;;;0.82;0.40;;;;;;;10.06;72.62;100157.16;4162323;28;20071;-62
2023/12/24 07:32:07;;;;;;;1.25;1.00;;;;;;;10.06;72.39;100152.88;4163891;28;20083;-62
2023/12/24 07:34:11;;;;;;;1.75;0.65;;;;;;;10.15;72.22;100162.50;4162133;28;20045;-62
2023/12/24 07:36:14;;;;;;;1.20;0.70;;;;;;;10.09;72.12;100163.28;4156569;28;20074;-60
2023/12/24 07:38:17;;;;;;;2.75;0.50;;;;;;;10.10;71.92;100167.63;4164069;28;20060;-62
2023/12/24 07:40:20;;;;;;;0.52;0.30;;;;;;;10.15;72.43;100172.88;4163085;28;20043;-62
2023/12/24 07:42:22;;;;;;;0.20;0.20;;;;;;;10.24;72.21;100169.50;4160641;28;20434;-62
2023/12/24 07:44:25;;;;;;;1.67;0.40;;;;;;;10.21;72.45;100164.28;4157491;28;20042;-63
2023/12/24 07:46:28;;;;;;;2.20;0.57;;;;;;;10.35;72.34;100172.25;4161543;28;20078;-63
2023/12/24 07:48:30;;;;;;;0.60;0.40;;;;;;;10.41;71.91;100181.00;4158121;28;20083;-63
2023/12/24 07:50:34;;;;;;;0.85;0.45;;;;;;;10.37;71.93;100179.22;4160759;28;20351;-63
2023/12/24 07:52:37;;;;;;;1.15;0.38;;;;;;;10.39;71.53;100182.69;4158518;28;20045;-63
2023/12/24 07:54:40;;;;;;;0.35;0.35;;;;;;;10.42;71.70;100182.72;4145304;28;20145;-62
2023/12/24 07:56:43;;;;;;;0.70;0.47;;;;;;;10.43;72.76;100183.59;4154636;28;20136;-63
2023/12/24 07:58:46;;;;;;;0.20;0.20;;;;;;;10.44;72.87;100185.31;4154972;28;20029;-62
2023/12/24 08:00:50;;;;;;;0.98;0.80;;;;;;;10.31;73.15;100184.31;4163074;28;20120;-62
2023/12/24 08:02:52;;;;;;;1.95;0.30;;;;;;;10.18;73.53;100203.19;4160357;28;20048;-62
2023/12/24 08:04:55;;;;;;;1.85;0.40;;;;;;;10.21;73.37;100188.53;4150204;28;20048;-62
2023/12/24 08:06:59;;;;;;;3.83;0.40;;;;;;;10.24;73.60;100196.34;4150055;28;20127;-62
2023/12/24 08:09:03;;;;;;;0.40;0.40;;;;;;;10.22;74.22;100197.19;4149678;28;20038;-61
2023/12/24 08:11:05;;;;;;;2.67;0.63;;;;;;;10.12;74.10;100194.50;4163688;28;20049;-62
2023/12/24 08:13:18;;;;;;;1.35;0.43;;;;;;;10.09;74.09;100199.66;4160203;28;20038;-62
2023/12/24 08:15:22;;;;;;;1.27;0.50;;;;;;;10.05;74.52;100208.25;4166372;28;20048;-62
2023/12/24 08:17:25;;;;;;;3.40;0.70;;;;;;;10.12;74.77;100207.47;4166678;28;20495;-61
2023/12/24 08:19:28;;;;;;;0.50;0.45;;;;;;;10.06;75.11;100210.00;4166568;28;20037;-61
2023/12/24 08:21:31;;;;;;;2.47;0.93;;;;;;;10.01;75.70;100205.59;4162688;28;20854;-61
2023/12/24 08:23:35;;;;;;;3.55;0.60;;;;;;;10.07;75.73;100210.88;4158107;28;20450;-60
2023/12/24 08:25:38;;;;;;;6.47;1.15;;;;;;;10.02;75.67;100204.75;4165011;28;20068;-62
2023/12/24 08:27:41;;;;;;;2.95;0.60;;;;;;;10.04;76.28;100203.91;4153353;28;20074;-61
2023/12/24 08:29:44;;;;;;;3.05;1.10;;;;;;;9.99;76.54;100203.00;4149993;28;20408;-61
2023/12/24 08:31:47;;;;;;;4.28;0.73;;;;;;;9.97;76.80;100196.88;4150008;28;20550;-61
2023/12/24 08:33:50;;;;;;;3.08;1.08;;;;;;;9.98;76.67;100198.63;4155267;28;20124;-62
2023/12/24 08:35:52;;;;;;;3.33;0.60;;;;;;;9.98;77.02;100210.78;4165982;28;20052;-62
2023/12/24 08:37:55;;;;;;;2.00;0.45;;;;;;;9.97;77.56;100204.69;4151425;28;20034;-62
2023/12/24 08:39:59;;;;;;;4.35;0.82;;;;;;;10.04;77.54;100206.50;4158973;28;20128;-61
2023/12/24 08:42:02;;;;;;;3.55;0.73;;;;;;;10.07;77.16;100200.47;4158081;28;20481;-62
2023/12/24 08:44:05;;;;;;;2.90;0.50;;;;;;;10.06;76.69;100199.63;4166147;28;20041;-62
2023/12/24 08:46:09;;;;;;;2.47;0.65;;;;;;;10.09;76.59;100210.03;4164639;28;20068;-62
2023/12/24 08:48:12;;;;;;;0.80;0.40;;;;;;;10.05;76.97;100203.06;4164245;28;20041;-61
2023/12/24 08:50:15;;;;;;;1.08;0.57;;;;;;;10.04;76.52;100216.88;4157826;28;20038;-62
2023/12/24 08:52:18;;;;;;;0.95;0.40;;;;;;;10.12;76.43;100210.06;4166074;28;20048;-62
2023/12/24 08:54:22;;;;;;;7.38;0.77;;;;;;;10.11;77.07;100220.44;4164913;28;20033;-62
2023/12/24 08:56:26;;;;;;;0.73;0.50;;;;;;;10.12;76.58;100210.06;4163020;28;20041;-62
2023/12/24 08:58:31;;;;;;;1.88;0.43;;;;;;;10.08;77.03;100207.44;4161139;28;20521;-61
2023/12/24 09:00:33;;;;;;;0.98;0.50;;;;;;;10.06;76.68;100217.81;4164823;28;20426;-61
2023/12/24 09:02:37;;;;;;;1.05;0.40;;;;;;;10.11;76.84;100216.13;4165959;28;20041;-62
2023/12/24 09:04:40;;;;;;;2.63;0.50;;;;;;;10.12;76.81;100219.59;4164644;28;20446;-62
2023/12/24 09:06:44;;;;;;;0.50;0.45;;;;;;;10.17;76.92;100222.25;4164244;28;20144;-62
2023/12/24 09:08:47;;;;;;;0.63;0.40;;;;;;;10.18;77.46;100226.56;4165861;28;20046;-62
2023/12/24 09:10:50;;;;;;;0.25;0.25;;;;;;;10.23;77.62;100219.72;4163826;28;20083;-61
2023/12/24 09:12:54;;;;;;;1.77;0.43;;;;;;;10.29;77.50;100220.69;4157534;28;20455;-62
2023/12/24 09:14:57;;;;;;;0.30;0.30;;;;;;;10.33;77.55;100212.91;4165683;28;20055;-62
2023/12/24 09:17:00;;;;;;;1.75;0.30;;;;;;;10.41;78.17;100206.09;4164812;28;20060;-62
2023/12/24 09:19:03;;;;;;;0.22;0.22;;;;;;;10.37;78.00;100200.00;4158079;28;20621;-62
2023/12/24 09:21:07;;;;;;;0.40;0.40;;;;;;;10.39;77.25;100203.47;4149364;28;20034;-62
2023/12/24 09:23:09;;;;;;;0.43;0.40;;;;;;;10.42;77.55;100213.91;4160307;28;20141;-62
2023/12/24 09:25:13;;;;;;;0.35;0.35;;;;;;;10.43;77.29;100210.44;4164196;28;20064;-62
2023/12/24 09:27:16;;;;;;;0.30;0.30;;;;;;;10.43;77.44;100202.66;4156039;28;20101;-62
2023/12/24 09:29:22;;;;;;;0.25;0.25;;;;;;;10.43;76.50;100202.66;4149011;28;20069;-62
2023/12/24 09:31:25;;;;;;;1.25;0.60;;;;;;;10.29;76.96;100197.28;4154964;28;20132;-62
2023/12/24 09:33:32;;;;;;;0.50;0.50;;;;;;;10.25;77.16;100200.72;4164206;28;20033;-62
2023/12/24 09:35:35;;;;;;;0.30;0.30;;;;;;;10.28;77.80;100205.06;4151701;28;20104;-62